sensor_id;sensor_type;location;lat;lon;timestamp;P1;durP1;ratioP1;P2;durP2;ratioP2
70337;SDS011;57757;53.198;19.646;2023-04-01T00:00:53;27.60;;;12.40;;
70337;SDS011;57757;53.198;19.646;2023-04-01T00:03:21;27.30;;;11.80;;
70337;SDS011;57757;53.198;19.646;2023-04-01T00:05:50;18.70;;;9.90;;
70337;SDS011;57757;53.198;19.646;2023-04-01T00:08:18;18.90;;;9.60;;
70337;SDS011;57757;53.198;19.646;2023-04-01T00:10:48;22.70;;;10.90;;
70337;SDS011;57757;53.198;19.646;2023-04-01T00:13:15;16.40;;;9.00;;
70337;SDS011;57757;53.198;19.646;2023-04-01T00:15:44;16.80;;;9.80;;
70337;SDS011;57757;53.198;19.646;2023-04-01T00:18:12;16.00;;;8.80;;
70337;SDS011;57757;53.198;19.646;2023-04-01T00:20:45;14.80;;;8.30;;
70337;SDS011;57757;53.198;19.646;2023-04-01T00:23:14;16.00;;;9.20;;
70337;SDS011;57757;53.198;19.646;2023-04-01T00:25:43;19.40;;;9.20;;
70337;SDS011;57757;53.198;19.646;2023-04-01T00:28:12;19.40;;;9.40;;
70337;SDS011;57757;53.198;19.646;2023-04-01T00:30:40;18.00;;;9.50;;
70337;SDS011;57757;53.198;19.646;2023-04-01T00:33:07;18.30;;;10.00;;
70337;SDS011;57757;53.198;19.646;2023-04-01T00:35:35;22.30;;;11.90;;
70337;SDS011;57757;53.198;19.646;2023-04-01T00:38:03;21.40;;;10.80;;
70337;SDS011;57757;53.198;19.646;2023-04-01T00:40:39;20.40;;;10.60;;
70337;SDS011;57757;53.198;19.646;2023-04-01T00:43:13;23.90;;;11.20;;
70337;SDS011;57757;53.198;19.646;2023-04-01T00:45:45;20.50;;;10.30;;
70337;SDS011;57757;53.198;19.646;2023-04-01T00:51:01;21.90;;;11.00;;
70337;SDS011;57757;53.198;19.646;2023-04-01T00:53:36;22.20;;;12.10;;
70337;SDS011;57757;53.198;19.646;2023-04-01T00:56:52;22.40;;;11.40;;
70337;SDS011;57757;53.198;19.646;2023-04-01T00:59:04;21.20;;;10.50;;
70337;SDS011;57757;53.198;19.646;2023-04-01T01:01:35;18.10;;;10.10;;
70337;SDS011;57757;53.198;19.646;2023-04-01T01:04:04;18.40;;;9.20;;
70337;SDS011;57757;53.198;19.646;2023-04-01T01:09:15;48.10;;;13.30;;
70337;SDS011;57757;53.198;19.646;2023-04-01T01:31:50;20.90;;;10.80;;
70337;SDS011;57757;53.198;19.646;2023-04-01T01:34:33;19.30;;;9.70;;
70337;SDS011;57757;53.198;19.646;2023-04-01T01:37:08;17.00;;;8.50;;
70337;SDS011;57757;53.198;19.646;2023-04-01T01:39:41;18.60;;;9.20;;
70337;SDS011;57757;53.198;19.646;2023-04-01T01:42:13;19.10;;;9.40;;
70337;SDS011;57757;53.198;19.646;2023-04-01T01:44:45;19.30;;;8.80;;
70337;SDS011;57757;53.198;19.646;2023-04-01T01:47:16;15.40;;;8.40;;
70337;SDS011;57757;53.198;19.646;2023-04-01T01:49:46;16.70;;;8.80;;
70337;SDS011;57757;53.198;19.646;2023-04-01T01:52:13;17.30;;;9.90;;
70337;SDS011;57757;53.198;19.646;2023-04-01T01:54:48;27.50;;;11.80;;
70337;SDS011;57757;53.198;19.646;2023-04-01T01:57:17;22.70;;;11.30;;
70337;SDS011;57757;53.198;19.646;2023-04-01T01:59:51;19.40;;;10.30;;
70337;SDS011;57757;53.198;19.646;2023-04-01T02:02:22;18.10;;;9.80;;
70337;SDS011;57757;53.198;19.646;2023-04-01T02:04:52;18.50;;;9.70;;
70337;SDS011;57757;53.198;19.646;2023-04-01T02:07:24;17.40;;;9.30;;
70337;SDS011;57757;53.198;19.646;2023-04-01T02:09:57;18.40;;;9.70;;
70337;SDS011;57757;53.198;19.646;2023-04-01T02:12:25;18.80;;;9.50;;
70337;SDS011;57757;53.198;19.646;2023-04-01T02:15:14;19.00;;;10.00;;
70337;SDS011;57757;53.198;19.646;2023-04-01T02:17:43;15.00;;;8.40;;
70337;SDS011;57757;53.198;19.646;2023-04-01T02:20:15;14.50;;;8.10;;
70337;SDS011;57757;53.198;19.646;2023-04-01T02:25:33;16.80;;;9.30;;
70337;SDS011;57757;53.198;19.646;2023-04-01T02:28:03;17.60;;;10.50;;
70337;SDS011;57757;53.198;19.646;2023-04-01T02:30:34;18.30;;;10.40;;
70337;SDS011;57757;53.198;19.646;2023-04-01T02:33:04;20.60;;;11.50;;
70337;SDS011;57757;53.198;19.646;2023-04-01T02:35:33;22.80;;;12.50;;
70337;SDS011;57757;53.198;19.646;2023-04-01T02:38:04;25.00;;;12.10;;
70337;SDS011;57757;53.198;19.646;2023-04-01T02:43:17;16.70;;;9.20;;
70337;SDS011;57757;53.198;19.646;2023-04-01T02:45:47;19.70;;;10.10;;
70337;SDS011;57757;53.198;19.646;2023-04-01T02:48:15;15.80;;;8.90;;
70337;SDS011;57757;53.198;19.646;2023-04-01T02:50:42;15.40;;;8.60;;
70337;SDS011;57757;53.198;19.646;2023-04-01T02:53:10;20.30;;;9.60;;
70337;SDS011;57757;53.198;19.646;2023-04-01T02:55:38;25.70;;;11.20;;
70337;SDS011;57757;53.198;19.646;2023-04-01T02:58:06;25.30;;;11.50;;
70337;SDS011;57757;53.198;19.646;2023-04-01T03:00:34;19.40;;;9.60;;
70337;SDS011;57757;53.198;19.646;2023-04-01T03:03:02;16.20;;;8.40;;
70337;SDS011;57757;53.198;19.646;2023-04-01T03:05:30;20.10;;;8.60;;
70337;SDS011;57757;53.198;19.646;2023-04-01T03:07:58;17.60;;;9.00;;
70337;SDS011;57757;53.198;19.646;2023-04-01T03:10:26;14.50;;;7.30;;
70337;SDS011;57757;53.198;19.646;2023-04-01T03:12:54;12.50;;;6.80;;
70337;SDS011;57757;53.198;19.646;2023-04-01T03:15:21;14.10;;;6.80;;
70337;SDS011;57757;53.198;19.646;2023-04-01T03:17:49;12.80;;;6.80;;
70337;SDS011;57757;53.198;19.646;2023-04-01T03:20:17;13.50;;;7.80;;
70337;SDS011;57757;53.198;19.646;2023-04-01T03:22:44;13.70;;;7.60;;
70337;SDS011;57757;53.198;19.646;2023-04-01T03:25:13;13.60;;;6.90;;
70337;SDS011;57757;53.198;19.646;2023-04-01T03:27:41;14.80;;;6.90;;
70337;SDS011;57757;53.198;19.646;2023-04-01T03:30:09;18.30;;;11.90;;
70337;SDS011;57757;53.198;19.646;2023-04-01T03:32:37;19.80;;;12.90;;
70337;SDS011;57757;53.198;19.646;2023-04-01T03:35:05;30.50;;;14.10;;
70337;SDS011;57757;53.198;19.646;2023-04-01T03:37:33;59.20;;;21.70;;
70337;SDS011;57757;53.198;19.646;2023-04-01T03:40:01;44.00;;;17.30;;
70337;SDS011;57757;53.198;19.646;2023-04-01T03:42:29;42.10;;;15.60;;
70337;SDS011;57757;53.198;19.646;2023-04-01T03:45:07;31.80;;;13.60;;
70337;SDS011;57757;53.198;19.646;2023-04-01T03:47:36;29.80;;;11.50;;
70337;SDS011;57757;53.198;19.646;2023-04-01T03:50:04;18.10;;;9.10;;
70337;SDS011;57757;53.198;19.646;2023-04-01T03:52:33;25.70;;;10.10;;
70337;SDS011;57757;53.198;19.646;2023-04-01T03:55:01;21.70;;;9.70;;
70337;SDS011;57757;53.198;19.646;2023-04-01T03:57:33;22.30;;;9.20;;
70337;SDS011;57757;53.198;19.646;2023-04-01T04:00:00;19.20;;;9.70;;
70337;SDS011;57757;53.198;19.646;2023-04-01T04:02:29;17.90;;;10.00;;
70337;SDS011;57757;53.198;19.646;2023-04-01T04:04:57;22.20;;;10.40;;
70337;SDS011;57757;53.198;19.646;2023-04-01T04:07:24;17.30;;;8.90;;
70337;SDS011;57757;53.198;19.646;2023-04-01T04:09:52;14.30;;;8.50;;
70337;SDS011;57757;53.198;19.646;2023-04-01T04:12:19;15.20;;;8.80;;
70337;SDS011;57757;53.198;19.646;2023-04-01T04:14:47;15.70;;;8.40;;
70337;SDS011;57757;53.198;19.646;2023-04-01T04:17:14;13.20;;;8.60;;
70337;SDS011;57757;53.198;19.646;2023-04-01T04:19:44;15.70;;;8.90;;
70337;SDS011;57757;53.198;19.646;2023-04-01T04:22:11;14.30;;;8.10;;
70337;SDS011;57757;53.198;19.646;2023-04-01T04:24:39;17.90;;;8.70;;
70337;SDS011;57757;53.198;19.646;2023-04-01T04:27:06;19.40;;;9.50;;
70337;SDS011;57757;53.198;19.646;2023-04-01T04:29:34;21.30;;;10.80;;
70337;SDS011;57757;53.198;19.646;2023-04-01T04:32:02;22.20;;;11.00;;
70337;SDS011;57757;53.198;19.646;2023-04-01T04:34:30;43.20;;;16.00;;
70337;SDS011;57757;53.198;19.646;2023-04-01T04:36:57;50.70;;;20.10;;
70337;SDS011;57757;53.198;19.646;2023-04-01T04:39:25;40.90;;;15.10;;
70337;SDS011;57757;53.198;19.646;2023-04-01T04:41:53;27.10;;;12.40;;
70337;SDS011;57757;53.198;19.646;2023-04-01T04:44:20;21.20;;;10.80;;
70337;SDS011;57757;53.198;19.646;2023-04-01T04:46:48;25.90;;;11.70;;
70337;SDS011;57757;53.198;19.646;2023-04-01T04:49:16;21.70;;;11.70;;
70337;SDS011;57757;53.198;19.646;2023-04-01T04:51:44;19.90;;;10.30;;
70337;SDS011;57757;53.198;19.646;2023-04-01T04:54:12;20.50;;;11.10;;
70337;SDS011;57757;53.198;19.646;2023-04-01T04:56:39;22.70;;;11.40;;
70337;SDS011;57757;53.198;19.646;2023-04-01T04:59:07;20.60;;;11.10;;
70337;SDS011;57757;53.198;19.646;2023-04-01T05:01:34;23.00;;;12.80;;
70337;SDS011;57757;53.198;19.646;2023-04-01T05:04:02;26.00;;;12.80;;
70337;SDS011;57757;53.198;19.646;2023-04-01T05:06:30;21.70;;;11.60;;
70337;SDS011;57757;53.198;19.646;2023-04-01T05:08:58;22.00;;;12.40;;
70337;SDS011;57757;53.198;19.646;2023-04-01T05:11:26;21.60;;;11.10;;
70337;SDS011;57757;53.198;19.646;2023-04-01T05:13:54;19.20;;;10.60;;
70337;SDS011;57757;53.198;19.646;2023-04-01T05:16:22;24.90;;;11.70;;
70337;SDS011;57757;53.198;19.646;2023-04-01T05:18:50;22.90;;;12.20;;
70337;SDS011;57757;53.198;19.646;2023-04-01T05:21:18;27.10;;;12.50;;
70337;SDS011;57757;53.198;19.646;2023-04-01T05:23:45;26.80;;;12.90;;
70337;SDS011;57757;53.198;19.646;2023-04-01T05:26:13;21.80;;;11.10;;
70337;SDS011;57757;53.198;19.646;2023-04-01T05:28:42;23.30;;;11.60;;
70337;SDS011;57757;53.198;19.646;2023-04-01T05:31:09;26.20;;;12.80;;
70337;SDS011;57757;53.198;19.646;2023-04-01T05:33:37;29.50;;;13.10;;
70337;SDS011;57757;53.198;19.646;2023-04-01T05:36:12;25.80;;;12.50;;
70337;SDS011;57757;53.198;19.646;2023-04-01T05:38:41;22.30;;;11.30;;
70337;SDS011;57757;53.198;19.646;2023-04-01T05:41:10;22.00;;;11.40;;
70337;SDS011;57757;53.198;19.646;2023-04-01T05:43:38;22.10;;;11.30;;
70337;SDS011;57757;53.198;19.646;2023-04-01T05:46:07;20.50;;;10.40;;
70337;SDS011;57757;53.198;19.646;2023-04-01T05:48:35;19.00;;;9.80;;
70337;SDS011;57757;53.198;19.646;2023-04-01T05:51:03;19.00;;;9.70;;
70337;SDS011;57757;53.198;19.646;2023-04-01T05:53:32;17.40;;;9.10;;
70337;SDS011;57757;53.198;19.646;2023-04-01T05:56:03;20.60;;;10.20;;
70337;SDS011;57757;53.198;19.646;2023-04-01T05:58:31;25.60;;;11.00;;
70337;SDS011;57757;53.198;19.646;2023-04-01T06:01:00;22.50;;;9.90;;
70337;SDS011;57757;53.198;19.646;2023-04-01T06:03:38;20.80;;;9.90;;
70337;SDS011;57757;53.198;19.646;2023-04-01T06:06:13;15.10;;;7.80;;
70337;SDS011;57757;53.198;19.646;2023-04-01T06:08:43;17.30;;;8.20;;
70337;SDS011;57757;53.198;19.646;2023-04-01T06:13:52;21.60;;;10.20;;
70337;SDS011;57757;53.198;19.646;2023-04-01T06:30:41;24.90;;;12.20;;
70337;SDS011;57757;53.198;19.646;2023-04-01T06:33:21;32.10;;;14.10;;
70337;SDS011;57757;53.198;19.646;2023-04-01T06:44:28;36.00;;;16.60;;
70337;SDS011;57757;53.198;19.646;2023-04-01T06:53:07;53.20;;;25.20;;
70337;SDS011;57757;53.198;19.646;2023-04-01T06:55:47;43.20;;;22.20;;
70337;SDS011;57757;53.198;19.646;2023-04-01T06:58:23;35.20;;;17.20;;
70337;SDS011;57757;53.198;19.646;2023-04-01T07:00:57;36.20;;;17.90;;
70337;SDS011;57757;53.198;19.646;2023-04-01T07:03:33;76.80;;;34.40;;
70337;SDS011;57757;53.198;19.646;2023-04-01T07:09:19;33.20;;;16.70;;
70337;SDS011;57757;53.198;19.646;2023-04-01T07:11:49;39.40;;;17.90;;
70337;SDS011;57757;53.198;19.646;2023-04-01T07:17:09;32.40;;;15.40;;
70337;SDS011;57757;53.198;19.646;2023-04-01T07:25:16;28.30;;;14.50;;
70337;SDS011;57757;53.198;19.646;2023-04-01T07:27:56;24.80;;;12.80;;
70337;SDS011;57757;53.198;19.646;2023-04-01T07:30:33;26.90;;;13.00;;
70337;SDS011;57757;53.198;19.646;2023-04-01T07:33:23;25.80;;;11.70;;
70337;SDS011;57757;53.198;19.646;2023-04-01T07:36:18;24.90;;;10.80;;
70337;SDS011;57757;53.198;19.646;2023-04-01T07:44:11;31.70;;;15.60;;
70337;SDS011;57757;53.198;19.646;2023-04-01T08:00:38;23.20;;;10.80;;
70337;SDS011;57757;53.198;19.646;2023-04-01T08:06:05;27.10;;;10.80;;
70337;SDS011;57757;53.198;19.646;2023-04-01T08:17:20;19.60;;;7.30;;
70337;SDS011;57757;53.198;19.646;2023-04-01T08:22:41;18.80;;;7.90;;
70337;SDS011;57757;53.198;19.646;2023-04-01T08:25:20;27.70;;;8.90;;
70337;SDS011;57757;53.198;19.646;2023-04-01T08:33:46;19.10;;;7.80;;
70337;SDS011;57757;53.198;19.646;2023-04-01T08:36:21;17.60;;;7.90;;
70337;SDS011;57757;53.198;19.646;2023-04-01T08:39:02;33.40;;;18.90;;
70337;SDS011;57757;53.198;19.646;2023-04-01T09:18:08;22.00;;;9.10;;
70337;SDS011;57757;53.198;19.646;2023-04-01T09:34:35;15.10;;;10.30;;
70337;SDS011;57757;53.198;19.646;2023-04-01T09:40:17;13.90;;;7.40;;
70337;SDS011;57757;53.198;19.646;2023-04-01T09:54:13;30.60;;;11.00;;
70337;SDS011;57757;53.198;19.646;2023-04-01T11:02:57;63.40;;;24.40;;
70337;SDS011;57757;53.198;19.646;2023-04-01T11:14:02;23.90;;;9.60;;
70337;SDS011;57757;53.198;19.646;2023-04-01T11:19:45;73.50;;;32.70;;
70337;SDS011;57757;53.198;19.646;2023-04-01T11:25:18;22.40;;;8.80;;
70337;SDS011;57757;53.198;19.646;2023-04-01T11:33:49;34.50;;;12.70;;
70337;SDS011;57757;53.198;19.646;2023-04-01T11:45:10;55.10;;;24.70;;
70337;SDS011;57757;53.198;19.646;2023-04-01T11:56:16;37.30;;;16.40;;
70337;SDS011;57757;53.198;19.646;2023-04-01T12:02:11;55.00;;;22.30;;
70337;SDS011;57757;53.198;19.646;2023-04-01T12:10:38;41.30;;;17.30;;
70337;SDS011;57757;53.198;19.646;2023-04-01T12:15:57;30.80;;;16.00;;
70337;SDS011;57757;53.198;19.646;2023-04-01T12:21:38;47.10;;;22.90;;
70337;SDS011;57757;53.198;19.646;2023-04-01T12:55:12;28.00;;;12.80;;
70337;SDS011;57757;53.198;19.646;2023-04-01T13:20:03;121.60;;;45.30;;
70337;SDS011;57757;53.198;19.646;2023-04-01T13:25:40;190.00;;;73.70;;
70337;SDS011;57757;53.198;19.646;2023-04-01T13:28:39;55.80;;;29.60;;
70337;SDS011;57757;53.198;19.646;2023-04-01T13:31:24;31.40;;;17.20;;
70337;SDS011;57757;53.198;19.646;2023-04-01T13:36:52;27.00;;;15.70;;
70337;SDS011;57757;53.198;19.646;2023-04-01T14:13:43;28.70;;;16.40;;
70337;SDS011;57757;53.198;19.646;2023-04-01T14:34:32;20.80;;;10.20;;
70337;SDS011;57757;53.198;19.646;2023-04-01T14:37:13;29.10;;;13.50;;
70337;SDS011;57757;53.198;19.646;2023-04-01T15:07:22;32.40;;;15.00;;
70337;SDS011;57757;53.198;19.646;2023-04-01T15:21:18;24.50;;;11.20;;
70337;SDS011;57757;53.198;19.646;2023-04-01T15:32:31;32.20;;;16.30;;
70337;SDS011;57757;53.198;19.646;2023-04-01T15:35:03;34.70;;;13.80;;
70337;SDS011;57757;53.198;19.646;2023-04-01T15:37:45;33.50;;;14.60;;
70337;SDS011;57757;53.198;19.646;2023-04-01T15:43:19;40.10;;;17.00;;
70337;SDS011;57757;53.198;19.646;2023-04-01T15:48:50;23.90;;;10.30;;
70337;SDS011;57757;53.198;19.646;2023-04-01T16:08:52;28.90;;;11.70;;
70337;SDS011;57757;53.198;19.646;2023-04-01T16:25:00;21.40;;;7.50;;
70337;SDS011;57757;53.198;19.646;2023-04-01T16:28:03;80.30;;;21.60;;
70337;SDS011;57757;53.198;19.646;2023-04-01T16:30:38;31.30;;;10.20;;
70337;SDS011;57757;53.198;19.646;2023-04-01T16:36:09;28.20;;;9.00;;
70337;SDS011;57757;53.198;19.646;2023-04-01T16:38:43;30.10;;;8.60;;
70337;SDS011;57757;53.198;19.646;2023-04-01T16:49:42;34.50;;;16.40;;
70337;SDS011;57757;53.198;19.646;2023-04-01T16:52:30;35.40;;;19.10;;
70337;SDS011;57757;53.198;19.646;2023-04-01T16:55:19;29.60;;;13.90;;
70337;SDS011;57757;53.198;19.646;2023-04-01T16:57:56;41.10;;;17.70;;
70337;SDS011;57757;53.198;19.646;2023-04-01T17:00:28;28.00;;;12.60;;
70337;SDS011;57757;53.198;19.646;2023-04-01T17:05:55;21.10;;;9.30;;
70337;SDS011;57757;53.198;19.646;2023-04-01T17:11:13;22.40;;;10.80;;
70337;SDS011;57757;53.198;19.646;2023-04-01T17:13:58;27.10;;;12.00;;
70337;SDS011;57757;53.198;19.646;2023-04-01T17:16:52;26.10;;;10.60;;
70337;SDS011;57757;53.198;19.646;2023-04-01T17:52:54;28.70;;;12.80;;
70337;SDS011;57757;53.198;19.646;2023-04-01T18:03:44;19.80;;;10.10;;
70337;SDS011;57757;53.198;19.646;2023-04-01T18:15:03;31.90;;;12.20;;
70337;SDS011;57757;53.198;19.646;2023-04-01T18:17:57;46.20;;;15.60;;
70337;SDS011;57757;53.198;19.646;2023-04-01T18:20:32;56.90;;;17.30;;
70337;SDS011;57757;53.198;19.646;2023-04-01T18:26:04;36.90;;;12.30;;
70337;SDS011;57757;53.198;19.646;2023-04-01T18:28:38;29.60;;;11.40;;
70337;SDS011;57757;53.198;19.646;2023-04-01T18:31:24;25.90;;;11.50;;
70337;SDS011;57757;53.198;19.646;2023-04-01T18:34:07;34.10;;;12.00;;
70337;SDS011;57757;53.198;19.646;2023-04-01T18:39:46;74.80;;;28.40;;
70337;SDS011;57757;53.198;19.646;2023-04-01T18:48:03;34.90;;;14.40;;
70337;SDS011;57757;53.198;19.646;2023-04-01T18:50:38;25.00;;;11.10;;
70337;SDS011;57757;53.198;19.646;2023-04-01T18:53:22;20.60;;;9.60;;
70337;SDS011;57757;53.198;19.646;2023-04-01T18:56:09;18.10;;;8.80;;
70337;SDS011;57757;53.198;19.646;2023-04-01T18:58:46;15.20;;;8.50;;
70337;SDS011;57757;53.198;19.646;2023-04-01T19:01:23;17.90;;;8.90;;
70337;SDS011;57757;53.198;19.646;2023-04-01T19:06:55;20.40;;;9.70;;
70337;SDS011;57757;53.198;19.646;2023-04-01T19:22:58;17.40;;;7.90;;
70337;SDS011;57757;53.198;19.646;2023-04-01T19:25:53;15.00;;;6.70;;
70337;SDS011;57757;53.198;19.646;2023-04-01T19:33:52;17.10;;;7.90;;
70337;SDS011;57757;53.198;19.646;2023-04-01T19:36:31;11.00;;;6.10;;
70337;SDS011;57757;53.198;19.646;2023-04-01T19:41:39;14.20;;;6.50;;
70337;SDS011;57757;53.198;19.646;2023-04-01T19:50:34;12.40;;;5.60;;
70337;SDS011;57757;53.198;19.646;2023-04-01T19:53:25;12.30;;;5.40;;
70337;SDS011;57757;53.198;19.646;2023-04-01T19:56:19;11.50;;;5.40;;
70337;SDS011;57757;53.198;19.646;2023-04-01T19:58:54;12.10;;;5.30;;
70337;SDS011;57757;53.198;19.646;2023-04-01T20:04:30;17.00;;;7.30;;
70337;SDS011;57757;53.198;19.646;2023-04-01T20:07:13;25.70;;;9.70;;
70337;SDS011;57757;53.198;19.646;2023-04-01T20:15:35;17.40;;;7.00;;
70337;SDS011;57757;53.198;19.646;2023-04-01T20:18:08;18.70;;;6.30;;
70337;SDS011;57757;53.198;19.646;2023-04-01T20:20:55;12.30;;;4.80;;
70337;SDS011;57757;53.198;19.646;2023-04-01T20:23:34;18.70;;;6.00;;
70337;SDS011;57757;53.198;19.646;2023-04-01T20:26:22;11.60;;;4.60;;
70337;SDS011;57757;53.198;19.646;2023-04-01T20:29:04;13.90;;;4.60;;
70337;SDS011;57757;53.198;19.646;2023-04-01T20:31:44;17.20;;;7.10;;
70337;SDS011;57757;53.198;19.646;2023-04-01T20:37:21;8.90;;;3.90;;
70337;SDS011;57757;53.198;19.646;2023-04-01T20:48:39;7.00;;;2.50;;
70337;SDS011;57757;53.198;19.646;2023-04-01T20:51:14;8.00;;;2.80;;
70337;SDS011;57757;53.198;19.646;2023-04-01T20:53:57;7.80;;;2.70;;
70337;SDS011;57757;53.198;19.646;2023-04-01T20:59:10;7.60;;;3.20;;
70337;SDS011;57757;53.198;19.646;2023-04-01T21:04:42;10.80;;;3.70;;
70337;SDS011;57757;53.198;19.646;2023-04-01T21:07:23;7.40;;;2.50;;
70337;SDS011;57757;53.198;19.646;2023-04-01T21:19:01;7.20;;;2.80;;
70337;SDS011;57757;53.198;19.646;2023-04-01T21:33:15;9.80;;;4.90;;
70337;SDS011;57757;53.198;19.646;2023-04-01T21:45:17;7.10;;;3.30;;
70337;SDS011;57757;53.198;19.646;2023-04-01T22:13:18;8.90;;;3.60;;
70337;SDS011;57757;53.198;19.646;2023-04-01T22:18:43;10.10;;;4.40;;
70337;SDS011;57757;53.198;19.646;2023-04-01T22:21:22;10.80;;;4.90;;
70337;SDS011;57757;53.198;19.646;2023-04-01T22:23:55;9.20;;;4.60;;
70337;SDS011;57757;53.198;19.646;2023-04-01T22:26:27;13.40;;;6.10;;
70337;SDS011;57757;53.198;19.646;2023-04-01T22:31:59;8.50;;;4.10;;
70337;SDS011;57757;53.198;19.646;2023-04-01T22:37:23;7.90;;;3.10;;
70337;SDS011;57757;53.198;19.646;2023-04-01T22:51:04;9.50;;;3.50;;
70337;SDS011;57757;53.198;19.646;2023-04-01T22:56:40;19.40;;;5.30;;
70337;SDS011;57757;53.198;19.646;2023-04-01T23:01:44;7.80;;;3.00;;
70337;SDS011;57757;53.198;19.646;2023-04-01T23:04:21;14.40;;;4.30;;
70337;SDS011;57757;53.198;19.646;2023-04-01T23:06:55;10.50;;;3.40;;
70337;SDS011;57757;53.198;19.646;2023-04-01T23:09:28;7.80;;;3.30;;
70337;SDS011;57757;53.198;19.646;2023-04-01T23:12:02;9.80;;;3.60;;
70337;SDS011;57757;53.198;19.646;2023-04-01T23:33:56;6.70;;;2.20;;
70337;SDS011;57757;53.198;19.646;2023-04-01T23:36:29;6.10;;;2.30;;
70337;SDS011;57757;53.198;19.646;2023-04-01T23:39:00;6.00;;;2.30;;
70337;SDS011;57757;53.198;19.646;2023-04-01T23:41:34;5.80;;;2.20;;
70337;SDS011;57757;53.198;19.646;2023-04-01T23:44:04;7.50;;;2.60;;
70337;SDS011;57757;53.198;19.646;2023-04-01T23:46:36;9.80;;;3.20;;
70337;SDS011;57757;53.198;19.646;2023-04-01T23:49:11;8.70;;;3.50;;
70337;SDS011;57757;53.198;19.646;2023-04-01T23:54:29;16.00;;;5.20;;
70337;SDS011;57757;53.198;19.646;2023-04-01T23:57:14;18.30;;;5.30;;
70337;SDS011;57757;53.198;19.646;2023-04-01T23:59:59;29.70;;;8.40;;
